ASA616 KLAX-MRLB
Flight info
| Callsign | ASA616 |
|---|---|
| Flight time | 5h 6m |
| Altitude | 33000 |
| Route | PNDAH2 TCATE DCT PPE UL655 CDR/N0455F350 UL655 AVALI UT61 VER UA552 AUR UG436 TEXUP DCT LODMI LODMI1S |
| Aircraft | B739/M-SDE2E3FGHIRWXY/LB1 |
Departure
| Time | 2026-04-16 06:47 |
|---|---|
| Airport | Los Angeles International Airport (KLAX) |
Arrival
| Time | 2026-04-16 11:53 |
|---|---|
| Airport | Daniel Oduber Quirós International Airport (MRLB) |
| Time | Latitude | Longitude | Altitude | Speed | Heading |
|---|---|---|---|---|---|
| 2026-04-16 06:18 | 33.94073 | -118.40253 | 94 ft | 0 kts | 83° |
| 2026-04-16 06:38 | 33.94072 | -118.40264 | 94 ft | 4 kts | 83° |
| 2026-04-16 06:38 | 33.94068 | -118.40295 | 94 ft | 4 kts | 88° |
| 2026-04-16 06:38 | 33.94073 | -118.40317 | 94 ft | 4 kts | 154° |
| 2026-04-16 06:38 | 33.94082 | -118.40321 | 94 ft | 2 kts | 173° |
| 2026-04-16 06:39 | 33.94056 | -118.40317 | 95 ft | 4 kts | 173° |
| 2026-04-16 06:39 | 33.94034 | -118.40314 | 96 ft | 0 kts | 173° |
| 2026-04-16 06:41 | 33.94024 | -118.40312 | 97 ft | 5 kts | 171° |
| 2026-04-16 06:42 | 33.93964 | -118.40300 | 98 ft | 10 kts | 171° |
| 2026-04-16 06:42 | 33.93890 | -118.40290 | 99 ft | 13 kts | 173° |
| 2026-04-16 06:42 | 33.93857 | -118.40215 | 103 ft | 13 kts | 84° |
| 2026-04-16 06:42 | 33.93872 | -118.40060 | 104 ft | 22 kts | 82° |
| 2026-04-16 06:43 | 33.93891 | -118.39874 | 103 ft | 23 kts | 84° |
| 2026-04-16 06:43 | 33.93910 | -118.39687 | 102 ft | 22 kts | 81° |
| 2026-04-16 06:43 | 33.93930 | -118.39497 | 102 ft | 24 kts | 83° |
| 2026-04-16 06:43 | 33.93951 | -118.39293 | 100 ft | 25 kts | 83° |
| 2026-04-16 06:44 | 33.93971 | -118.39090 | 101 ft | 24 kts | 83° |
| 2026-04-16 06:44 | 33.93991 | -118.38901 | 101 ft | 22 kts | 83° |
| 2026-04-16 06:44 | 33.94009 | -118.38717 | 101 ft | 22 kts | 82° |
| 2026-04-16 06:44 | 33.94027 | -118.38540 | 102 ft | 21 kts | 83° |
| 2026-04-16 06:45 | 33.94041 | -118.38402 | 101 ft | 13 kts | 84° |
| 2026-04-16 06:45 | 33.94006 | -118.38331 | 107 ft | 10 kts | 163° |
| 2026-04-16 06:45 | 33.93956 | -118.38355 | 109 ft | 9 kts | 243° |
| 2026-04-16 06:45 | 33.93946 | -118.38415 | 109 ft | 7 kts | 264° |
| 2026-04-16 06:46 | 33.93929 | -118.38576 | 109 ft | 50 kts | 263° |
| 2026-04-16 06:46 | 33.93853 | -118.39317 | 103 ft | 126 kts | 263° |
| 2026-04-16 06:46 | 33.93716 | -118.40604 | 109 ft | 184 kts | 262° |
| 2026-04-16 06:46 | 33.93550 | -118.42234 | 658 ft | 195 kts | 262° |
| 2026-04-16 06:47 | 33.93393 | -118.43792 | 1784 ft | 185 kts | 263° |
| 2026-04-16 06:47 | 33.93211 | -118.45434 | 2172 ft | 212 kts | 257° |
| 2026-04-16 06:47 | 33.92483 | -118.47061 | 2420 ft | 232 kts | 231° |
| 2026-04-16 06:47 | 33.91430 | -118.48575 | 2919 ft | 238 kts | 231° |
| 2026-04-16 06:48 | 33.90348 | -118.50133 | 3406 ft | 252 kts | 230° |
| 2026-04-16 06:48 | 33.89143 | -118.51826 | 3661 ft | 275 kts | 229° |
| 2026-04-16 06:48 | 33.87912 | -118.53561 | 4647 ft | 266 kts | 229° |
| 2026-04-16 06:48 | 33.86648 | -118.55168 | 5487 ft | 268 kts | 216° |
| 2026-04-16 06:49 | 33.84919 | -118.55978 | 6155 ft | 271 kts | 184° |
| 2026-04-16 06:49 | 33.83034 | -118.55765 | 6859 ft | 275 kts | 168° |
| 2026-04-16 06:49 | 33.81246 | -118.55238 | 7482 ft | 279 kts | 167° |
| 2026-04-16 06:49 | 33.79343 | -118.54694 | 8166 ft | 282 kts | 168° |
| 2026-04-16 06:50 | 33.77417 | -118.54162 | 8852 ft | 285 kts | 169° |
| 2026-04-16 06:50 | 33.75466 | -118.53633 | 9533 ft | 289 kts | 169° |
| 2026-04-16 06:50 | 33.73494 | -118.53101 | 10185 ft | 293 kts | 169° |
| 2026-04-16 06:50 | 33.71441 | -118.52519 | 10414 ft | 314 kts | 163° |
| 2026-04-16 06:51 | 33.69509 | -118.51138 | 10554 ft | 338 kts | 136° |
| 2026-04-16 06:51 | 33.68141 | -118.48753 | 10801 ft | 356 kts | 119° |
| 2026-04-16 06:51 | 33.66996 | -118.46084 | 11311 ft | 362 kts | 118° |
| 2026-04-16 06:51 | 33.65885 | -118.43397 | 11926 ft | 365 kts | 118° |
| 2026-04-16 06:52 | 33.64739 | -118.40628 | 12562 ft | 367 kts | 118° |
| 2026-04-16 06:52 | 33.63600 | -118.37911 | 13156 ft | 371 kts | 118° |
| 2026-04-16 06:52 | 33.62423 | -118.35139 | 13745 ft | 374 kts | 119° |
| 2026-04-16 06:52 | 33.61225 | -118.32341 | 14299 ft | 377 kts | 119° |
| 2026-04-16 06:53 | 33.60017 | -118.29533 | 14849 ft | 379 kts | 119° |
| 2026-04-16 06:53 | 33.58799 | -118.26712 | 15402 ft | 382 kts | 119° |
| 2026-04-16 06:53 | 33.57572 | -118.23870 | 15942 ft | 385 kts | 119° |
| 2026-04-16 06:53 | 33.56337 | -118.21014 | 16483 ft | 387 kts | 119° |
| 2026-04-16 06:54 | 33.55093 | -118.18138 | 17018 ft | 390 kts | 119° |
| 2026-04-16 06:54 | 33.53835 | -118.15235 | 17524 ft | 393 kts | 119° |
| 2026-04-16 06:54 | 33.52577 | -118.12321 | 18044 ft | 396 kts | 119° |
| 2026-04-16 06:54 | 33.51312 | -118.09379 | 18529 ft | 398 kts | 119° |
| 2026-04-16 06:55 | 33.50041 | -118.06420 | 18974 ft | 401 kts | 119° |
| 2026-04-16 06:55 | 33.48777 | -118.03484 | 19424 ft | 403 kts | 119° |
| 2026-04-16 06:55 | 33.47483 | -118.00492 | 19871 ft | 406 kts | 120° |
| 2026-04-16 06:55 | 33.45829 | -117.97775 | 20268 ft | 405 kts | 138° |
| 2026-04-16 06:56 | 33.43730 | -117.95530 | 20735 ft | 406 kts | 141° |
| 2026-04-16 06:56 | 33.41577 | -117.93310 | 21167 ft | 408 kts | 141° |
| 2026-04-16 06:56 | 33.39419 | -117.91085 | 21582 ft | 411 kts | 141° |
| 2026-04-16 06:56 | 33.37253 | -117.88830 | 21993 ft | 414 kts | 141° |
| 2026-04-16 06:57 | 33.35081 | -117.86551 | 22419 ft | 417 kts | 140° |
| 2026-04-16 06:57 | 33.32903 | -117.84252 | 22855 ft | 419 kts | 140° |
| 2026-04-16 06:57 | 33.30713 | -117.81933 | 23257 ft | 421 kts | 140° |
| 2026-04-16 06:57 | 33.28514 | -117.79603 | 23648 ft | 424 kts | 140° |
| 2026-04-16 06:58 | 33.26305 | -117.77265 | 23986 ft | 426 kts | 141° |
| 2026-04-16 06:58 | 33.24080 | -117.74912 | 24333 ft | 428 kts | 141° |
| 2026-04-16 06:58 | 33.21843 | -117.72547 | 24672 ft | 430 kts | 141° |
| 2026-04-16 06:58 | 33.19592 | -117.70170 | 25003 ft | 432 kts | 141° |
| 2026-04-16 06:59 | 33.17356 | -117.67757 | 25321 ft | 436 kts | 136° |
| 2026-04-16 06:59 | 33.15582 | -117.64782 | 25595 ft | 446 kts | 117° |
| 2026-04-16 06:59 | 33.14466 | -117.61313 | 25934 ft | 449 kts | 111° |
| 2026-04-16 06:59 | 33.13450 | -117.57774 | 26226 ft | 453 kts | 111° |
| 2026-04-16 07:00 | 33.12441 | -117.54198 | 26495 ft | 456 kts | 111° |
| 2026-04-16 07:00 | 33.11422 | -117.50601 | 26773 ft | 459 kts | 111° |
| 2026-04-16 07:00 | 33.10399 | -117.47040 | 27059 ft | 461 kts | 111° |
| 2026-04-16 07:01 | 33.08278 | -117.39785 | 27635 ft | 466 kts | 112° |
| 2026-04-16 07:01 | 33.07229 | -117.36236 | 27902 ft | 468 kts | 112° |
| 2026-04-16 07:01 | 33.06168 | -117.32656 | 28170 ft | 471 kts | 112° |
| 2026-04-16 07:01 | 33.05071 | -117.28965 | 28453 ft | 473 kts | 112° |
| 2026-04-16 07:02 | 33.03966 | -117.25251 | 28718 ft | 476 kts | 112° |
| 2026-04-16 07:02 | 33.02858 | -117.21530 | 28959 ft | 478 kts | 112° |
| 2026-04-16 07:02 | 33.01741 | -117.17783 | 29220 ft | 481 kts | 112° |
| 2026-04-16 07:02 | 33.00622 | -117.14029 | 29579 ft | 481 kts | 112° |
| 2026-04-16 07:03 | 32.99502 | -117.10274 | 29996 ft | 480 kts | 112° |
| 2026-04-16 07:03 | 32.98385 | -117.06536 | 30353 ft | 479 kts | 112° |
| 2026-04-16 07:03 | 32.97266 | -117.02795 | 30627 ft | 480 kts | 113° |
| 2026-04-16 07:03 | 32.96157 | -116.99094 | 30869 ft | 481 kts | 113° |
| 2026-04-16 07:04 | 32.95030 | -116.95340 | 31127 ft | 482 kts | 113° |
| 2026-04-16 07:04 | 32.93900 | -116.91581 | 31429 ft | 481 kts | 113° |
| 2026-04-16 07:04 | 32.92771 | -116.87828 | 31696 ft | 482 kts | 113° |
| 2026-04-16 07:04 | 32.91639 | -116.84070 | 31949 ft | 483 kts | 113° |
| 2026-04-16 07:05 | 32.90505 | -116.80309 | 32199 ft | 483 kts | 113° |
| 2026-04-16 07:05 | 32.89369 | -116.76544 | 32472 ft | 483 kts | 113° |
| 2026-04-16 07:05 | 32.88233 | -116.72787 | 32746 ft | 483 kts | 113° |
| 2026-04-16 07:05 | 32.87097 | -116.69034 | 32980 ft | 483 kts | 113° |
| 2026-04-16 07:06 | 32.85959 | -116.65277 | 33069 ft | 484 kts | 113° |
| 2026-04-16 07:06 | 32.83669 | -116.57733 | 33079 ft | 485 kts | 113° |
| 2026-04-16 07:07 | 32.81377 | -116.50198 | 33082 ft | 484 kts | 113° |
| 2026-04-16 07:07 | 32.78740 | -116.42879 | 33077 ft | 480 kts | 121° |
| 2026-04-16 07:08 | 32.75597 | -116.35888 | 33079 ft | 479 kts | 122° |
| 2026-04-16 07:08 | 32.72423 | -116.28928 | 33070 ft | 479 kts | 122° |
| 2026-04-16 07:09 | 32.69311 | -116.21925 | 33069 ft | 480 kts | 121° |
| 2026-04-16 07:09 | 32.66250 | -116.14932 | 33068 ft | 480 kts | 121° |
| 2026-04-16 07:10 | 32.63173 | -116.07887 | 33056 ft | 480 kts | 121° |
| 2026-04-16 07:10 | 32.60092 | -116.00853 | 33047 ft | 480 kts | 121° |
| 2026-04-16 07:11 | 32.57003 | -115.93823 | 33030 ft | 480 kts | 121° |
| 2026-04-16 07:11 | 32.53910 | -115.86799 | 33012 ft | 481 kts | 121° |
| 2026-04-16 07:12 | 32.50811 | -115.79775 | 33015 ft | 481 kts | 121° |
| 2026-04-16 07:12 | 32.47701 | -115.72740 | 33009 ft | 482 kts | 121° |
| 2026-04-16 07:13 | 32.44602 | -115.65745 | 32991 ft | 482 kts | 121° |
| 2026-04-16 07:13 | 32.41478 | -115.58706 | 32977 ft | 483 kts | 121° |
| 2026-04-16 07:14 | 32.38348 | -115.51666 | 32962 ft | 483 kts | 122° |
| 2026-04-16 07:14 | 32.35210 | -115.44622 | 32941 ft | 484 kts | 121° |
| 2026-04-16 07:15 | 32.32070 | -115.37586 | 32947 ft | 483 kts | 121° |
| 2026-04-16 07:15 | 32.28931 | -115.30568 | 32936 ft | 482 kts | 122° |
| 2026-04-16 07:16 | 32.25796 | -115.23572 | 32938 ft | 481 kts | 122° |
| 2026-04-16 07:16 | 32.22661 | -115.16589 | 32938 ft | 481 kts | 122° |
| 2026-04-16 07:17 | 32.19525 | -115.09619 | 32939 ft | 481 kts | 122° |
| 2026-04-16 07:17 | 32.16405 | -115.02697 | 32941 ft | 480 kts | 122° |
| 2026-04-16 07:18 | 32.13264 | -114.95740 | 32939 ft | 481 kts | 122° |
| 2026-04-16 07:18 | 32.10116 | -114.88781 | 32940 ft | 481 kts | 122° |
| 2026-04-16 07:19 | 32.06960 | -114.81819 | 32938 ft | 481 kts | 122° |
| 2026-04-16 07:19 | 32.03798 | -114.74856 | 32938 ft | 482 kts | 122° |
| 2026-04-16 07:20 | 32.00631 | -114.67895 | 32939 ft | 482 kts | 122° |
| 2026-04-16 07:20 | 31.97453 | -114.60925 | 32943 ft | 483 kts | 122° |
| 2026-04-16 07:21 | 31.94294 | -114.54008 | 32946 ft | 483 kts | 122° |
| 2026-04-16 07:21 | 31.91104 | -114.47035 | 32944 ft | 484 kts | 122° |
| 2026-04-16 07:22 | 31.87910 | -114.40069 | 32946 ft | 484 kts | 122° |
| 2026-04-16 07:22 | 31.84710 | -114.33099 | 32951 ft | 484 kts | 122° |
| 2026-04-16 07:23 | 31.81503 | -114.26130 | 32948 ft | 484 kts | 122° |
| 2026-04-16 07:23 | 31.78291 | -114.19164 | 32949 ft | 484 kts | 122° |
| 2026-04-16 07:24 | 31.75080 | -114.12212 | 32950 ft | 484 kts | 122° |
| 2026-04-16 07:24 | 31.71864 | -114.05262 | 32951 ft | 484 kts | 122° |
| 2026-04-16 07:25 | 31.69189 | -113.99490 | 32950 ft | 484 kts | 122° |
| 2026-04-16 07:25 | 31.65965 | -113.92546 | 32951 ft | 484 kts | 122° |
| 2026-04-16 07:26 | 31.62742 | -113.85619 | 32955 ft | 484 kts | 122° |
| 2026-04-16 07:26 | 31.59512 | -113.78687 | 32955 ft | 484 kts | 122° |
| 2026-04-16 07:27 | 31.56281 | -113.71766 | 32957 ft | 484 kts | 122° |
| 2026-04-16 07:27 | 31.53069 | -113.64900 | 32958 ft | 484 kts | 122° |
| 2026-04-16 07:28 | 31.49828 | -113.57984 | 32960 ft | 484 kts | 123° |
| 2026-04-16 07:28 | 31.46582 | -113.51070 | 32957 ft | 484 kts | 123° |
| 2026-04-16 07:29 | 31.43332 | -113.44159 | 32957 ft | 484 kts | 123° |
| 2026-04-16 07:29 | 31.40077 | -113.37247 | 32963 ft | 484 kts | 123° |
| 2026-04-16 07:30 | 31.36818 | -113.30342 | 32959 ft | 485 kts | 123° |
| 2026-04-16 07:30 | 31.33385 | -113.23572 | 32966 ft | 483 kts | 126° |
| 2026-04-16 07:31 | 31.29789 | -113.16943 | 32958 ft | 483 kts | 127° |
| 2026-04-16 07:31 | 31.26190 | -113.10300 | 32966 ft | 483 kts | 126° |
| 2026-04-16 07:32 | 31.22618 | -113.03636 | 32965 ft | 484 kts | 126° |
| 2026-04-16 07:32 | 31.19080 | -112.97010 | 32967 ft | 484 kts | 126° |
| 2026-04-16 07:33 | 31.15516 | -112.90341 | 32969 ft | 484 kts | 126° |
| 2026-04-16 07:33 | 31.11949 | -112.83679 | 32967 ft | 484 kts | 126° |
| 2026-04-16 07:34 | 31.08378 | -112.77027 | 32969 ft | 483 kts | 126° |
| 2026-04-16 07:34 | 31.04805 | -112.70381 | 32964 ft | 483 kts | 126° |
| 2026-04-16 07:35 | 31.01227 | -112.63738 | 32965 ft | 483 kts | 126° |
| 2026-04-16 07:35 | 30.97654 | -112.57114 | 32954 ft | 483 kts | 126° |
| 2026-04-16 07:36 | 30.94076 | -112.50493 | 32965 ft | 483 kts | 126° |
| 2026-04-16 07:36 | 30.90515 | -112.43914 | 32955 ft | 483 kts | 126° |
| 2026-04-16 07:37 | 30.86929 | -112.37301 | 32965 ft | 483 kts | 127° |
| 2026-04-16 07:37 | 30.83339 | -112.30692 | 32968 ft | 483 kts | 127° |
| 2026-04-16 07:38 | 30.79741 | -112.24079 | 32963 ft | 483 kts | 127° |
| 2026-04-16 07:38 | 30.76139 | -112.17468 | 32959 ft | 484 kts | 127° |
| 2026-04-16 07:39 | 30.72525 | -112.10848 | 32958 ft | 484 kts | 127° |
| 2026-04-16 07:39 | 30.68938 | -112.04289 | 32953 ft | 484 kts | 127° |
| 2026-04-16 07:40 | 30.65322 | -111.97687 | 32962 ft | 484 kts | 127° |
| 2026-04-16 07:40 | 30.61705 | -111.91093 | 32953 ft | 484 kts | 127° |
| 2026-04-16 07:41 | 30.58077 | -111.84491 | 32954 ft | 484 kts | 127° |
| 2026-04-16 07:41 | 30.54450 | -111.77903 | 32949 ft | 485 kts | 127° |
| 2026-04-16 07:42 | 30.50816 | -111.71312 | 32947 ft | 485 kts | 127° |
| 2026-04-16 07:42 | 30.47174 | -111.64718 | 32951 ft | 486 kts | 127° |
| 2026-04-16 07:43 | 30.43526 | -111.58124 | 32953 ft | 486 kts | 127° |
| 2026-04-16 07:43 | 30.39873 | -111.51530 | 32952 ft | 486 kts | 127° |
| 2026-04-16 07:44 | 30.36237 | -111.44979 | 32950 ft | 487 kts | 127° |
| 2026-04-16 07:44 | 30.32572 | -111.38387 | 32957 ft | 487 kts | 127° |
| 2026-04-16 07:45 | 30.28898 | -111.31789 | 32945 ft | 487 kts | 127° |
| 2026-04-16 07:45 | 30.25226 | -111.25204 | 32949 ft | 487 kts | 127° |
| 2026-04-16 07:46 | 30.21549 | -111.18622 | 32947 ft | 487 kts | 127° |
| 2026-04-16 07:46 | 30.17870 | -111.12047 | 32953 ft | 487 kts | 127° |
| 2026-04-16 07:47 | 30.14208 | -111.05511 | 32948 ft | 487 kts | 128° |
| 2026-04-16 07:47 | 30.10519 | -110.98937 | 32948 ft | 487 kts | 127° |
| 2026-04-16 07:48 | 30.06844 | -110.92358 | 32951 ft | 487 kts | 127° |
| 2026-04-16 07:48 | 30.03170 | -110.85774 | 32951 ft | 487 kts | 127° |
| 2026-04-16 07:49 | 29.99493 | -110.79199 | 32948 ft | 487 kts | 128° |
| 2026-04-16 07:49 | 29.95812 | -110.72628 | 32949 ft | 487 kts | 128° |
| 2026-04-16 07:50 | 29.92155 | -110.66112 | 32939 ft | 487 kts | 128° |
| 2026-04-16 07:50 | 29.88478 | -110.59573 | 32950 ft | 486 kts | 128° |
| 2026-04-16 07:51 | 29.84795 | -110.53034 | 32951 ft | 486 kts | 128° |
| 2026-04-16 07:51 | 29.81111 | -110.46501 | 32948 ft | 486 kts | 128° |
| 2026-04-16 07:52 | 29.77425 | -110.39977 | 32950 ft | 486 kts | 128° |
| 2026-04-16 07:52 | 29.73737 | -110.33460 | 32953 ft | 486 kts | 128° |
| 2026-04-16 07:53 | 29.70062 | -110.26977 | 32962 ft | 487 kts | 128° |
| 2026-04-16 07:53 | 29.66365 | -110.20463 | 32957 ft | 486 kts | 128° |
| 2026-04-16 07:54 | 29.62660 | -110.13946 | 32962 ft | 486 kts | 128° |
| 2026-04-16 07:54 | 29.58954 | -110.07438 | 32970 ft | 486 kts | 128° |
| 2026-04-16 07:55 | 29.55242 | -110.00931 | 32961 ft | 487 kts | 128° |
| 2026-04-16 07:55 | 29.51525 | -109.94426 | 32967 ft | 487 kts | 128° |
| 2026-04-16 07:56 | 29.47801 | -109.87916 | 32967 ft | 487 kts | 129° |
| 2026-04-16 07:56 | 29.44103 | -109.81464 | 32970 ft | 487 kts | 129° |
| 2026-04-16 07:57 | 29.40372 | -109.74964 | 32964 ft | 487 kts | 129° |
| 2026-04-16 07:57 | 29.36631 | -109.68457 | 32961 ft | 487 kts | 129° |
| 2026-04-16 07:58 | 29.32897 | -109.61972 | 32962 ft | 487 kts | 129° |
| 2026-04-16 07:58 | 29.29165 | -109.55502 | 32973 ft | 486 kts | 129° |
| 2026-04-16 07:59 | 29.25455 | -109.49078 | 32967 ft | 487 kts | 129° |
| 2026-04-16 07:59 | 29.21721 | -109.42623 | 32976 ft | 487 kts | 129° |
| 2026-04-16 08:00 | 29.17982 | -109.36170 | 32980 ft | 486 kts | 129° |
| 2026-04-16 08:00 | 29.14243 | -109.29729 | 32986 ft | 486 kts | 129° |
| 2026-04-16 08:01 | 29.10503 | -109.23294 | 32997 ft | 486 kts | 130° |
| 2026-04-16 08:01 | 29.06758 | -109.16861 | 32997 ft | 486 kts | 130° |
| 2026-04-16 08:02 | 29.03003 | -109.10421 | 33024 ft | 486 kts | 130° |
| 2026-04-16 08:02 | 28.97383 | -109.00800 | 33034 ft | 488 kts | 130° |
| 2026-04-16 08:03 | 28.93605 | -108.94346 | 33028 ft | 490 kts | 130° |
| 2026-04-16 08:03 | 28.89813 | -108.87875 | 33043 ft | 490 kts | 130° |
| 2026-04-16 08:04 | 28.86016 | -108.81412 | 33053 ft | 490 kts | 130° |
| 2026-04-16 08:04 | 28.82213 | -108.74944 | 33052 ft | 490 kts | 130° |
| 2026-04-16 08:05 | 28.79054 | -108.69579 | 32991 ft | 490 kts | 130° |
| 2026-04-16 08:05 | 28.74621 | -108.62054 | 33090 ft | 489 kts | 130° |
| 2026-04-16 08:06 | 28.70817 | -108.55611 | 33056 ft | 490 kts | 130° |
| 2026-04-16 08:06 | 28.67014 | -108.49183 | 33072 ft | 489 kts | 130° |
| 2026-04-16 08:07 | 28.63222 | -108.42805 | 33088 ft | 489 kts | 130° |
| 2026-04-16 08:07 | 28.59393 | -108.36384 | 33085 ft | 491 kts | 130° |
| 2026-04-16 08:08 | 28.55551 | -108.29946 | 33090 ft | 492 kts | 130° |
| 2026-04-16 08:08 | 28.51696 | -108.23492 | 33096 ft | 493 kts | 130° |
| 2026-04-16 08:09 | 28.47838 | -108.17043 | 33095 ft | 493 kts | 130° |
| 2026-04-16 08:09 | 28.43973 | -108.10589 | 33112 ft | 494 kts | 130° |
| 2026-04-16 08:10 | 28.40101 | -108.04137 | 33108 ft | 494 kts | 130° |
| 2026-04-16 08:10 | 28.36246 | -107.97720 | 33113 ft | 494 kts | 130° |
| 2026-04-16 08:11 | 28.32368 | -107.91276 | 33111 ft | 494 kts | 130° |
| 2026-04-16 08:11 | 28.28484 | -107.84834 | 33173 ft | 498 kts | 130° |
| 2026-04-16 08:12 | 28.25212 | -107.79415 | 33448 ft | 502 kts | 130° |
| 2026-04-16 08:12 | 28.23243 | -107.76153 | 33755 ft | 501 kts | 130° |
| 2026-04-16 08:12 | 28.21274 | -107.72894 | 34041 ft | 500 kts | 130° |
| 2026-04-16 08:13 | 28.19302 | -107.69630 | 34287 ft | 500 kts | 130° |
| 2026-04-16 08:13 | 28.17342 | -107.66392 | 34620 ft | 497 kts | 131° |
| 2026-04-16 08:13 | 28.15394 | -107.63176 | 34963 ft | 493 kts | 131° |
| 2026-04-16 08:13 | 28.13454 | -107.59978 | 35145 ft | 493 kts | 131° |
| 2026-04-16 08:14 | 28.09549 | -107.53562 | 35125 ft | 495 kts | 131° |
| 2026-04-16 08:14 | 28.05654 | -107.47162 | 35123 ft | 492 kts | 131° |
| 2026-04-16 08:15 | 28.01773 | -107.40791 | 35126 ft | 491 kts | 131° |
| 2026-04-16 08:15 | 27.97894 | -107.34434 | 35130 ft | 490 kts | 131° |
| 2026-04-16 08:16 | 27.94048 | -107.28139 | 35115 ft | 489 kts | 131° |
| 2026-04-16 08:16 | 27.90174 | -107.21810 | 35118 ft | 489 kts | 131° |
| 2026-04-16 08:17 | 27.86300 | -107.15488 | 35119 ft | 489 kts | 132° |
| 2026-04-16 08:17 | 27.82420 | -107.09166 | 35114 ft | 489 kts | 132° |
| 2026-04-16 08:19 | 27.66887 | -106.83945 | 35110 ft | 488 kts | 132° |
| 2026-04-16 08:20 | 27.63000 | -106.77659 | 35097 ft | 488 kts | 132° |
| 2026-04-16 08:20 | 27.59086 | -106.71339 | 35085 ft | 488 kts | 132° |
| 2026-04-16 08:21 | 27.55222 | -106.65107 | 35095 ft | 489 kts | 132° |
| 2026-04-16 08:21 | 27.51316 | -106.58819 | 35075 ft | 490 kts | 133° |
| 2026-04-16 08:22 | 27.47403 | -106.52526 | 35060 ft | 491 kts | 133° |
| 2026-04-16 08:22 | 27.43484 | -106.46229 | 35058 ft | 490 kts | 133° |
| 2026-04-16 08:23 | 27.39576 | -106.39958 | 35057 ft | 489 kts | 133° |
| 2026-04-16 08:23 | 27.35689 | -106.33735 | 35054 ft | 488 kts | 133° |
| 2026-04-16 08:24 | 27.31786 | -106.27492 | 35054 ft | 488 kts | 133° |
| 2026-04-16 08:24 | 27.27878 | -106.21251 | 35037 ft | 488 kts | 133° |
| 2026-04-16 08:25 | 27.23965 | -106.15011 | 35039 ft | 488 kts | 133° |
| 2026-04-16 08:25 | 27.20051 | -106.08779 | 35060 ft | 488 kts | 133° |
| 2026-04-16 08:26 | 27.16143 | -106.02564 | 35042 ft | 487 kts | 133° |
| 2026-04-16 08:26 | 27.12227 | -105.96346 | 35055 ft | 487 kts | 133° |
| 2026-04-16 08:27 | 27.08337 | -105.90178 | 35055 ft | 487 kts | 133° |
| 2026-04-16 08:27 | 27.04411 | -105.83962 | 35037 ft | 488 kts | 133° |
| 2026-04-16 08:28 | 27.00478 | -105.77744 | 35035 ft | 489 kts | 133° |
| 2026-04-16 08:28 | 26.96540 | -105.71524 | 35029 ft | 489 kts | 134° |
| 2026-04-16 08:29 | 26.92598 | -105.65307 | 35022 ft | 489 kts | 134° |
| 2026-04-16 08:29 | 26.88651 | -105.59092 | 35031 ft | 489 kts | 134° |
| 2026-04-16 08:30 | 26.84698 | -105.52875 | 35026 ft | 490 kts | 134° |
| 2026-04-16 08:30 | 26.80746 | -105.46668 | 35028 ft | 489 kts | 134° |
| 2026-04-16 08:31 | 26.76798 | -105.40475 | 35020 ft | 488 kts | 134° |
| 2026-04-16 08:31 | 26.72851 | -105.34294 | 35022 ft | 488 kts | 134° |
| 2026-04-16 08:32 | 26.68928 | -105.28158 | 35016 ft | 487 kts | 134° |
| 2026-04-16 08:32 | 26.64990 | -105.22007 | 35013 ft | 486 kts | 134° |
| 2026-04-16 08:33 | 26.61054 | -105.15868 | 35013 ft | 485 kts | 134° |
| 2026-04-16 08:33 | 26.57122 | -105.09744 | 35013 ft | 484 kts | 134° |
| 2026-04-16 08:34 | 26.53197 | -105.03639 | 35015 ft | 484 kts | 134° |
| 2026-04-16 08:34 | 26.49272 | -104.97542 | 35005 ft | 483 kts | 134° |
| 2026-04-16 08:35 | 26.45346 | -104.91451 | 35013 ft | 482 kts | 134° |
| 2026-04-16 08:35 | 26.41428 | -104.85381 | 35007 ft | 482 kts | 134° |
| 2026-04-16 08:36 | 26.37510 | -104.79320 | 35003 ft | 481 kts | 134° |
| 2026-04-16 08:36 | 26.33616 | -104.73304 | 35005 ft | 481 kts | 134° |
| 2026-04-16 08:37 | 26.29699 | -104.67260 | 35002 ft | 481 kts | 134° |
| 2026-04-16 08:37 | 26.25783 | -104.61224 | 35010 ft | 481 kts | 134° |
| 2026-04-16 08:38 | 26.21856 | -104.55181 | 34999 ft | 481 kts | 134° |
| 2026-04-16 08:38 | 26.17931 | -104.49149 | 34996 ft | 481 kts | 134° |
| 2026-04-16 08:39 | 26.14003 | -104.43119 | 34994 ft | 481 kts | 134° |
| 2026-04-16 08:39 | 26.10072 | -104.37093 | 34992 ft | 481 kts | 134° |
| 2026-04-16 08:40 | 26.06137 | -104.31068 | 34987 ft | 481 kts | 134° |
| 2026-04-16 08:40 | 26.02200 | -104.25048 | 34992 ft | 481 kts | 134° |
| 2026-04-16 08:41 | 25.98285 | -104.19070 | 34989 ft | 481 kts | 134° |
| 2026-04-16 08:41 | 25.94317 | -104.13019 | 34995 ft | 481 kts | 134° |
| 2026-04-16 08:42 | 25.90396 | -104.07049 | 34987 ft | 482 kts | 134° |
| 2026-04-16 08:42 | 25.86445 | -104.01040 | 34988 ft | 482 kts | 134° |
| 2026-04-16 08:43 | 25.82483 | -103.95022 | 34986 ft | 482 kts | 134° |
| 2026-04-16 08:43 | 25.78523 | -103.89012 | 34983 ft | 482 kts | 134° |
| 2026-04-16 08:44 | 25.74560 | -103.83007 | 34985 ft | 482 kts | 134° |
| 2026-04-16 08:44 | 25.70591 | -103.77001 | 34981 ft | 483 kts | 134° |
| 2026-04-16 08:45 | 25.66620 | -103.71001 | 34975 ft | 482 kts | 134° |
| 2026-04-16 08:45 | 25.62645 | -103.65003 | 34994 ft | 484 kts | 134° |
| 2026-04-16 08:46 | 25.58657 | -103.58992 | 34982 ft | 484 kts | 134° |
| 2026-04-16 08:46 | 25.54675 | -103.52993 | 34970 ft | 482 kts | 135° |
| 2026-04-16 08:47 | 25.50728 | -103.47055 | 34980 ft | 481 kts | 135° |
| 2026-04-16 08:47 | 25.46760 | -103.41097 | 34987 ft | 479 kts | 135° |
| 2026-04-16 08:48 | 25.42786 | -103.35142 | 34980 ft | 482 kts | 135° |
| 2026-04-16 08:48 | 25.38785 | -103.29152 | 34979 ft | 485 kts | 135° |
| 2026-04-16 08:49 | 25.34770 | -103.23147 | 34980 ft | 486 kts | 135° |
| 2026-04-16 08:49 | 25.30766 | -103.17163 | 34980 ft | 487 kts | 135° |
| 2026-04-16 08:50 | 25.26709 | -103.11107 | 34978 ft | 486 kts | 135° |
| 2026-04-16 08:50 | 25.22708 | -103.05143 | 34991 ft | 485 kts | 135° |
| 2026-04-16 08:51 | 25.18686 | -102.99154 | 34975 ft | 484 kts | 135° |
| 2026-04-16 08:51 | 25.14676 | -102.93191 | 34983 ft | 481 kts | 135° |
| 2026-04-16 08:52 | 25.10689 | -102.87271 | 34994 ft | 479 kts | 135° |
| 2026-04-16 08:52 | 25.06742 | -102.81420 | 34998 ft | 478 kts | 135° |
| 2026-04-16 08:53 | 25.02776 | -102.75548 | 34997 ft | 477 kts | 135° |
| 2026-04-16 08:53 | 24.98819 | -102.69694 | 34998 ft | 475 kts | 135° |
| 2026-04-16 08:54 | 24.94868 | -102.63857 | 34998 ft | 474 kts | 135° |
| 2026-04-16 08:54 | 24.90925 | -102.58039 | 34998 ft | 473 kts | 135° |
| 2026-04-16 08:55 | 24.86984 | -102.52232 | 34997 ft | 474 kts | 135° |
| 2026-04-16 08:55 | 24.83058 | -102.46455 | 35005 ft | 474 kts | 135° |
| 2026-04-16 08:56 | 24.79106 | -102.40644 | 35002 ft | 474 kts | 135° |
| 2026-04-16 08:56 | 24.75149 | -102.34832 | 34999 ft | 474 kts | 135° |
| 2026-04-16 08:57 | 24.71192 | -102.29029 | 35012 ft | 474 kts | 135° |
| 2026-04-16 08:57 | 24.67233 | -102.23228 | 35016 ft | 474 kts | 135° |
| 2026-04-16 08:58 | 24.63260 | -102.17416 | 35024 ft | 475 kts | 135° |
| 2026-04-16 08:58 | 24.59291 | -102.11614 | 35016 ft | 474 kts | 135° |
| 2026-04-16 08:59 | 24.55999 | -102.06806 | 35020 ft | 473 kts | 135° |
| 2026-04-16 08:59 | 24.52040 | -102.01032 | 35033 ft | 472 kts | 135° |
| 2026-04-16 09:00 | 24.48090 | -101.95280 | 35032 ft | 471 kts | 134° |
| 2026-04-16 09:00 | 24.44140 | -101.89533 | 35036 ft | 471 kts | 134° |
| 2026-04-16 09:01 | 24.38240 | -101.80964 | 35042 ft | 472 kts | 135° |
| 2026-04-16 09:02 | 24.34278 | -101.75216 | 35040 ft | 472 kts | 134° |
| 2026-04-16 09:02 | 24.30308 | -101.69464 | 35055 ft | 473 kts | 135° |
| 2026-04-16 09:03 | 24.26331 | -101.63706 | 35045 ft | 473 kts | 134° |
| 2026-04-16 09:03 | 24.22357 | -101.57960 | 35058 ft | 473 kts | 135° |
| 2026-04-16 09:04 | 24.18379 | -101.52213 | 35061 ft | 473 kts | 134° |
| 2026-04-16 09:04 | 24.14340 | -101.46543 | 35064 ft | 470 kts | 137° |
| 2026-04-16 09:05 | 24.10055 | -101.41175 | 35065 ft | 467 kts | 139° |
| 2026-04-16 09:05 | 24.05722 | -101.35870 | 35065 ft | 467 kts | 139° |
| 2026-04-16 09:06 | 24.01413 | -101.30542 | 35066 ft | 468 kts | 139° |
| 2026-04-16 09:06 | 23.97146 | -101.25226 | 35075 ft | 468 kts | 139° |
| 2026-04-16 09:07 | 23.92860 | -101.19880 | 35075 ft | 468 kts | 139° |
| 2026-04-16 09:07 | 23.88568 | -101.14535 | 35081 ft | 468 kts | 139° |
| 2026-04-16 09:08 | 23.84274 | -101.09196 | 35074 ft | 468 kts | 138° |
| 2026-04-16 09:08 | 23.79976 | -101.03856 | 35079 ft | 468 kts | 138° |
| 2026-04-16 09:09 | 23.75678 | -100.98524 | 35086 ft | 467 kts | 138° |
| 2026-04-16 09:09 | 23.71382 | -100.93199 | 35090 ft | 467 kts | 138° |
| 2026-04-16 09:10 | 23.67080 | -100.87873 | 35089 ft | 468 kts | 138° |
| 2026-04-16 09:10 | 23.62767 | -100.82537 | 35080 ft | 468 kts | 138° |
| 2026-04-16 09:11 | 23.58473 | -100.77231 | 35083 ft | 465 kts | 138° |
| 2026-04-16 09:11 | 23.54192 | -100.71947 | 35092 ft | 464 kts | 138° |
| 2026-04-16 09:12 | 23.49948 | -100.66714 | 35091 ft | 463 kts | 138° |
| 2026-04-16 09:12 | 23.45677 | -100.61455 | 35092 ft | 463 kts | 138° |
| 2026-04-16 09:13 | 23.41405 | -100.56205 | 35090 ft | 462 kts | 138° |
| 2026-04-16 09:13 | 23.37142 | -100.50969 | 35095 ft | 462 kts | 138° |
| 2026-04-16 09:14 | 23.32873 | -100.45730 | 35084 ft | 462 kts | 138° |
| 2026-04-16 09:14 | 23.28607 | -100.40499 | 35086 ft | 462 kts | 138° |
| 2026-04-16 09:15 | 23.24342 | -100.35274 | 35087 ft | 462 kts | 138° |
| 2026-04-16 09:15 | 23.20073 | -100.30050 | 35077 ft | 462 kts | 138° |
| 2026-04-16 09:16 | 23.15804 | -100.24832 | 35078 ft | 461 kts | 138° |
| 2026-04-16 09:16 | 23.11541 | -100.19627 | 35079 ft | 461 kts | 138° |
| 2026-04-16 09:17 | 23.07285 | -100.14435 | 35084 ft | 460 kts | 137° |
| 2026-04-16 09:17 | 23.03033 | -100.09253 | 35079 ft | 459 kts | 138° |
| 2026-04-16 09:18 | 22.98776 | -100.04072 | 35077 ft | 460 kts | 137° |
| 2026-04-16 09:18 | 22.94517 | -99.98894 | 35076 ft | 460 kts | 137° |
| 2026-04-16 09:19 | 22.90250 | -99.93710 | 35068 ft | 460 kts | 137° |
| 2026-04-16 09:19 | 22.86014 | -99.88568 | 35078 ft | 460 kts | 137° |
| 2026-04-16 09:20 | 22.81743 | -99.83390 | 35070 ft | 461 kts | 137° |
| 2026-04-16 09:20 | 22.77464 | -99.78208 | 35074 ft | 461 kts | 137° |
| 2026-04-16 09:21 | 22.73174 | -99.73017 | 35060 ft | 463 kts | 137° |
| 2026-04-16 09:21 | 22.68878 | -99.67825 | 35063 ft | 463 kts | 137° |
| 2026-04-16 09:22 | 22.64567 | -99.62618 | 35057 ft | 465 kts | 137° |
| 2026-04-16 09:22 | 22.60269 | -99.57434 | 35048 ft | 465 kts | 137° |
| 2026-04-16 09:23 | 22.55951 | -99.52228 | 35047 ft | 465 kts | 137° |
| 2026-04-16 09:23 | 22.51627 | -99.47023 | 35051 ft | 466 kts | 137° |
| 2026-04-16 09:24 | 22.47282 | -99.41799 | 35038 ft | 466 kts | 137° |
| 2026-04-16 09:24 | 22.42942 | -99.36590 | 35032 ft | 465 kts | 137° |
| 2026-04-16 09:25 | 22.38636 | -99.31427 | 35036 ft | 466 kts | 137° |
| 2026-04-16 09:25 | 22.34288 | -99.26217 | 35024 ft | 466 kts | 137° |
| 2026-04-16 09:26 | 22.29951 | -99.21024 | 35020 ft | 466 kts | 137° |
| 2026-04-16 09:26 | 22.25602 | -99.15823 | 35012 ft | 466 kts | 137° |
| 2026-04-16 09:27 | 22.21251 | -99.10623 | 35014 ft | 466 kts | 137° |
| 2026-04-16 09:27 | 22.16932 | -99.05467 | 35007 ft | 466 kts | 137° |
| 2026-04-16 09:28 | 22.12585 | -99.00284 | 35003 ft | 466 kts | 137° |
| 2026-04-16 09:28 | 22.08228 | -98.95093 | 34994 ft | 466 kts | 137° |
| 2026-04-16 09:29 | 22.03871 | -98.89907 | 35001 ft | 467 kts | 137° |
| 2026-04-16 09:29 | 21.99510 | -98.84723 | 34992 ft | 467 kts | 137° |
| 2026-04-16 09:30 | 21.95152 | -98.79545 | 34990 ft | 466 kts | 137° |
| 2026-04-16 09:30 | 21.90788 | -98.74367 | 34989 ft | 466 kts | 137° |
| 2026-04-16 09:31 | 21.86416 | -98.69185 | 34990 ft | 467 kts | 137° |
| 2026-04-16 09:31 | 21.82083 | -98.64053 | 34986 ft | 466 kts | 137° |
| 2026-04-16 09:32 | 21.77717 | -98.58886 | 34998 ft | 466 kts | 137° |
| 2026-04-16 09:32 | 21.73344 | -98.53718 | 34988 ft | 466 kts | 137° |
| 2026-04-16 09:33 | 21.68974 | -98.48558 | 34984 ft | 466 kts | 137° |
| 2026-04-16 09:33 | 21.64607 | -98.43406 | 34990 ft | 466 kts | 137° |
| 2026-04-16 09:34 | 21.60241 | -98.38259 | 34984 ft | 466 kts | 137° |
| 2026-04-16 09:34 | 21.55873 | -98.33116 | 34991 ft | 466 kts | 137° |
| 2026-04-16 09:35 | 21.51505 | -98.27979 | 34985 ft | 465 kts | 137° |
| 2026-04-16 09:35 | 21.47142 | -98.22851 | 34988 ft | 465 kts | 137° |
| 2026-04-16 09:36 | 21.42779 | -98.17728 | 34981 ft | 465 kts | 136° |
| 2026-04-16 09:36 | 21.38433 | -98.12631 | 34981 ft | 464 kts | 136° |
| 2026-04-16 09:37 | 21.34073 | -98.07522 | 34980 ft | 464 kts | 136° |
| 2026-04-16 09:37 | 21.29711 | -98.02415 | 34979 ft | 464 kts | 137° |
| 2026-04-16 09:38 | 21.25348 | -97.97312 | 34984 ft | 463 kts | 136° |
| 2026-04-16 09:38 | 21.20989 | -97.92219 | 34980 ft | 464 kts | 136° |
| 2026-04-16 09:39 | 21.16629 | -97.87129 | 34983 ft | 464 kts | 136° |
| 2026-04-16 09:39 | 21.12263 | -97.82037 | 34978 ft | 463 kts | 136° |
| 2026-04-16 09:40 | 21.07929 | -97.76987 | 34976 ft | 464 kts | 136° |
| 2026-04-16 09:40 | 21.03565 | -97.71907 | 34980 ft | 464 kts | 136° |
| 2026-04-16 09:41 | 20.99195 | -97.66824 | 34979 ft | 464 kts | 136° |
| 2026-04-16 09:41 | 20.94816 | -97.61736 | 34978 ft | 464 kts | 136° |
| 2026-04-16 09:42 | 20.90428 | -97.56642 | 34973 ft | 465 kts | 136° |
| 2026-04-16 09:42 | 20.86041 | -97.51554 | 34973 ft | 465 kts | 136° |
| 2026-04-16 09:43 | 20.81676 | -97.46496 | 34968 ft | 466 kts | 136° |
| 2026-04-16 09:43 | 20.77280 | -97.41406 | 34970 ft | 466 kts | 137° |
| 2026-04-16 09:44 | 20.72868 | -97.36304 | 34966 ft | 467 kts | 137° |
| 2026-04-16 09:44 | 20.68460 | -97.31210 | 34965 ft | 467 kts | 137° |
| 2026-04-16 09:45 | 20.64046 | -97.26114 | 34965 ft | 467 kts | 137° |
| 2026-04-16 09:45 | 20.59631 | -97.21022 | 34957 ft | 467 kts | 137° |
| 2026-04-16 09:46 | 20.55958 | -97.16788 | 34962 ft | 467 kts | 137° |
| 2026-04-16 09:46 | 20.51545 | -97.11706 | 34958 ft | 467 kts | 137° |
| 2026-04-16 09:47 | 20.47130 | -97.06626 | 34958 ft | 466 kts | 137° |
| 2026-04-16 09:47 | 20.42713 | -97.01550 | 34956 ft | 466 kts | 137° |
| 2026-04-16 09:48 | 20.38304 | -96.96486 | 34953 ft | 466 kts | 137° |
| 2026-04-16 09:48 | 20.33895 | -96.91427 | 34955 ft | 465 kts | 137° |
| 2026-04-16 09:49 | 20.29481 | -96.86366 | 34954 ft | 465 kts | 137° |
| 2026-04-16 09:49 | 20.25063 | -96.81304 | 34955 ft | 465 kts | 137° |
| 2026-04-16 09:50 | 20.20657 | -96.76319 | 34951 ft | 463 kts | 141° |
| 2026-04-16 09:50 | 20.15470 | -96.72429 | 34957 ft | 453 kts | 158° |
| 2026-04-16 09:51 | 20.09819 | -96.69487 | 34957 ft | 452 kts | 158° |
| 2026-04-16 09:51 | 20.04152 | -96.66532 | 34964 ft | 453 kts | 158° |
| 2026-04-16 09:52 | 19.98505 | -96.63529 | 34967 ft | 454 kts | 157° |
| 2026-04-16 09:52 | 19.92863 | -96.60515 | 34974 ft | 454 kts | 157° |
| 2026-04-16 09:53 | 19.87213 | -96.57505 | 34976 ft | 454 kts | 157° |
| 2026-04-16 09:53 | 19.81561 | -96.54501 | 34974 ft | 454 kts | 157° |
| 2026-04-16 09:54 | 19.75942 | -96.51517 | 34966 ft | 455 kts | 157° |
| 2026-04-16 09:54 | 19.70278 | -96.48508 | 34972 ft | 455 kts | 157° |
| 2026-04-16 09:55 | 19.64618 | -96.45505 | 34972 ft | 455 kts | 157° |
| 2026-04-16 09:55 | 19.58940 | -96.42495 | 34975 ft | 455 kts | 157° |
| 2026-04-16 09:56 | 19.53268 | -96.39490 | 34963 ft | 456 kts | 157° |
| 2026-04-16 09:56 | 19.47597 | -96.36489 | 34965 ft | 455 kts | 157° |
| 2026-04-16 09:57 | 19.41955 | -96.33504 | 34958 ft | 455 kts | 157° |
| 2026-04-16 09:57 | 19.36292 | -96.30510 | 34954 ft | 454 kts | 157° |
| 2026-04-16 09:58 | 19.30642 | -96.27525 | 34954 ft | 454 kts | 157° |
| 2026-04-16 09:58 | 19.24988 | -96.24539 | 34956 ft | 453 kts | 157° |
| 2026-04-16 09:59 | 19.19349 | -96.21564 | 34948 ft | 452 kts | 157° |
| 2026-04-16 09:59 | 19.14112 | -96.17829 | 34948 ft | 460 kts | 140° |
| 2026-04-16 10:00 | 19.10072 | -96.12545 | 34955 ft | 465 kts | 127° |
| 2026-04-16 10:00 | 19.06507 | -96.06820 | 34947 ft | 466 kts | 127° |
| 2026-04-16 10:01 | 19.01132 | -95.98309 | 34940 ft | 466 kts | 127° |
| 2026-04-16 10:01 | 18.97529 | -95.92695 | 34941 ft | 466 kts | 127° |
| 2026-04-16 10:02 | 18.93891 | -95.87033 | 34937 ft | 466 kts | 128° |
| 2026-04-16 10:02 | 18.90251 | -95.81370 | 34940 ft | 466 kts | 128° |
| 2026-04-16 10:03 | 18.86611 | -95.75715 | 34943 ft | 466 kts | 128° |
| 2026-04-16 10:03 | 18.82964 | -95.70055 | 34941 ft | 466 kts | 128° |
| 2026-04-16 10:04 | 18.79319 | -95.64399 | 34938 ft | 466 kts | 128° |
| 2026-04-16 10:04 | 18.75694 | -95.58780 | 34939 ft | 466 kts | 128° |
| 2026-04-16 10:05 | 18.72048 | -95.53133 | 34939 ft | 465 kts | 128° |
| 2026-04-16 10:05 | 18.68404 | -95.47494 | 34943 ft | 465 kts | 128° |
| 2026-04-16 10:06 | 18.64756 | -95.41854 | 34942 ft | 465 kts | 127° |
| 2026-04-16 10:06 | 18.61107 | -95.36217 | 34949 ft | 465 kts | 127° |
| 2026-04-16 10:07 | 18.57451 | -95.30571 | 34954 ft | 466 kts | 127° |
| 2026-04-16 10:07 | 18.53785 | -95.24921 | 34951 ft | 467 kts | 127° |
| 2026-04-16 10:08 | 18.50135 | -95.19301 | 34956 ft | 467 kts | 127° |
| 2026-04-16 10:08 | 18.46461 | -95.13650 | 34959 ft | 468 kts | 127° |
| 2026-04-16 10:09 | 18.42782 | -95.07992 | 34957 ft | 468 kts | 127° |
| 2026-04-16 10:09 | 18.39098 | -95.02331 | 34961 ft | 468 kts | 127° |
| 2026-04-16 10:10 | 18.35414 | -94.96675 | 34961 ft | 468 kts | 127° |
| 2026-04-16 10:10 | 18.31727 | -94.91020 | 34964 ft | 469 kts | 127° |
| 2026-04-16 10:11 | 18.28035 | -94.85362 | 34956 ft | 469 kts | 127° |
| 2026-04-16 10:11 | 18.24364 | -94.79741 | 34949 ft | 469 kts | 127° |
| 2026-04-16 10:12 | 18.20673 | -94.74095 | 34949 ft | 469 kts | 127° |
| 2026-04-16 10:12 | 18.16976 | -94.68443 | 34946 ft | 469 kts | 127° |
| 2026-04-16 10:13 | 18.13277 | -94.62792 | 34939 ft | 469 kts | 127° |
| 2026-04-16 10:13 | 18.09448 | -94.57262 | 34927 ft | 466 kts | 136° |
| 2026-04-16 10:14 | 18.04858 | -94.52482 | 34931 ft | 463 kts | 139° |
| 2026-04-16 10:14 | 18.00189 | -94.47814 | 34933 ft | 463 kts | 139° |
| 2026-04-16 10:15 | 17.95538 | -94.43119 | 34938 ft | 464 kts | 139° |
| 2026-04-16 10:15 | 17.90907 | -94.38397 | 34928 ft | 464 kts | 139° |
| 2026-04-16 10:16 | 17.88595 | -94.36033 | 34934 ft | 464 kts | 139° |
| 2026-04-16 10:16 | 17.82125 | -94.29418 | 34930 ft | 464 kts | 139° |
| 2026-04-16 10:17 | 17.77492 | -94.24688 | 34935 ft | 465 kts | 139° |
| 2026-04-16 10:17 | 17.72848 | -94.19951 | 34930 ft | 465 kts | 139° |
| 2026-04-16 10:18 | 17.68209 | -94.15224 | 34934 ft | 465 kts | 139° |
| 2026-04-16 10:18 | 17.63599 | -94.10530 | 34936 ft | 465 kts | 139° |
| 2026-04-16 10:19 | 17.58960 | -94.05810 | 34931 ft | 465 kts | 139° |
| 2026-04-16 10:19 | 17.54317 | -94.01089 | 34938 ft | 465 kts | 139° |
| 2026-04-16 10:20 | 17.49677 | -93.96374 | 34933 ft | 465 kts | 139° |
| 2026-04-16 10:20 | 17.45035 | -93.91661 | 34944 ft | 465 kts | 139° |
| 2026-04-16 10:21 | 17.40387 | -93.86946 | 34944 ft | 465 kts | 139° |
| 2026-04-16 10:21 | 17.35739 | -93.82234 | 34946 ft | 465 kts | 139° |
| 2026-04-16 10:22 | 17.31085 | -93.77520 | 34950 ft | 465 kts | 139° |
| 2026-04-16 10:22 | 17.26436 | -93.72814 | 34954 ft | 465 kts | 139° |
| 2026-04-16 10:23 | 17.21778 | -93.68102 | 34953 ft | 465 kts | 139° |
| 2026-04-16 10:23 | 17.17129 | -93.63403 | 34960 ft | 465 kts | 139° |
| 2026-04-16 10:24 | 17.12062 | -93.58286 | 34960 ft | 465 kts | 139° |
| 2026-04-16 10:24 | 17.07407 | -93.53587 | 34971 ft | 465 kts | 139° |
| 2026-04-16 10:25 | 17.02743 | -93.48884 | 34970 ft | 466 kts | 138° |
| 2026-04-16 10:25 | 16.98111 | -93.44215 | 34975 ft | 466 kts | 138° |
| 2026-04-16 10:26 | 16.93445 | -93.39515 | 34976 ft | 466 kts | 138° |
| 2026-04-16 10:26 | 16.88776 | -93.34816 | 34984 ft | 466 kts | 138° |
| 2026-04-16 10:27 | 16.84103 | -93.30120 | 34984 ft | 466 kts | 138° |
| 2026-04-16 10:27 | 16.79425 | -93.25426 | 34985 ft | 466 kts | 138° |
| 2026-04-16 10:28 | 16.74748 | -93.20735 | 34988 ft | 466 kts | 138° |
| 2026-04-16 10:28 | 16.70069 | -93.16043 | 34989 ft | 466 kts | 138° |
| 2026-04-16 10:29 | 16.65420 | -93.11384 | 34986 ft | 467 kts | 137° |
| 2026-04-16 10:29 | 16.60730 | -93.06687 | 34980 ft | 467 kts | 137° |
| 2026-04-16 10:30 | 16.56103 | -93.01939 | 34977 ft | 467 kts | 133° |
| 2026-04-16 10:30 | 16.51954 | -92.96724 | 34980 ft | 468 kts | 130° |
| 2026-04-16 10:31 | 16.47893 | -92.91426 | 34975 ft | 468 kts | 130° |
| 2026-04-16 10:31 | 16.43781 | -92.86157 | 34974 ft | 468 kts | 130° |
| 2026-04-16 10:32 | 16.39650 | -92.80922 | 34970 ft | 468 kts | 130° |
| 2026-04-16 10:32 | 16.35512 | -92.75685 | 34974 ft | 468 kts | 130° |
| 2026-04-16 10:33 | 16.32077 | -92.71337 | 34968 ft | 468 kts | 130° |
| 2026-04-16 10:33 | 16.27939 | -92.66105 | 34969 ft | 468 kts | 130° |
| 2026-04-16 10:34 | 16.23799 | -92.60876 | 34973 ft | 468 kts | 130° |
| 2026-04-16 10:34 | 16.19655 | -92.55643 | 34975 ft | 468 kts | 130° |
| 2026-04-16 10:35 | 16.15507 | -92.50408 | 34974 ft | 468 kts | 130° |
| 2026-04-16 10:35 | 16.11388 | -92.45213 | 34986 ft | 468 kts | 130° |
| 2026-04-16 10:36 | 16.07240 | -92.39985 | 34990 ft | 468 kts | 130° |
| 2026-04-16 10:36 | 16.03086 | -92.34753 | 34995 ft | 468 kts | 130° |
| 2026-04-16 10:37 | 15.98936 | -92.29530 | 34996 ft | 468 kts | 130° |
| 2026-04-16 10:37 | 15.94786 | -92.24311 | 35006 ft | 469 kts | 130° |
| 2026-04-16 10:38 | 15.90625 | -92.19082 | 35017 ft | 469 kts | 130° |
| 2026-04-16 10:38 | 15.86466 | -92.13859 | 35023 ft | 469 kts | 130° |
| 2026-04-16 10:39 | 15.82303 | -92.08634 | 35032 ft | 470 kts | 129° |
| 2026-04-16 10:39 | 15.78162 | -92.03440 | 35034 ft | 470 kts | 129° |
| 2026-04-16 10:40 | 15.73983 | -91.98202 | 35050 ft | 470 kts | 129° |
| 2026-04-16 10:40 | 15.69804 | -91.92968 | 35059 ft | 471 kts | 129° |
| 2026-04-16 10:41 | 15.65620 | -91.87734 | 35072 ft | 471 kts | 129° |
| 2026-04-16 10:41 | 15.61428 | -91.82493 | 35093 ft | 472 kts | 129° |
| 2026-04-16 10:42 | 15.57241 | -91.77259 | 35106 ft | 472 kts | 129° |
| 2026-04-16 10:42 | 15.53043 | -91.72015 | 35116 ft | 472 kts | 129° |
| 2026-04-16 10:43 | 15.48876 | -91.66813 | 35132 ft | 472 kts | 129° |
| 2026-04-16 10:43 | 15.44677 | -91.61575 | 35148 ft | 472 kts | 129° |
| 2026-04-16 10:44 | 15.40476 | -91.56338 | 35154 ft | 472 kts | 129° |
| 2026-04-16 10:44 | 15.36279 | -91.51107 | 35162 ft | 472 kts | 129° |
| 2026-04-16 10:45 | 15.32076 | -91.45876 | 35173 ft | 472 kts | 129° |
| 2026-04-16 10:45 | 15.27874 | -91.40655 | 35176 ft | 472 kts | 129° |
| 2026-04-16 10:46 | 15.23664 | -91.35429 | 35177 ft | 472 kts | 129° |
| 2026-04-16 10:46 | 15.19486 | -91.30244 | 35188 ft | 472 kts | 129° |
| 2026-04-16 10:47 | 15.15271 | -91.25015 | 35184 ft | 473 kts | 129° |
| 2026-04-16 10:47 | 15.11050 | -91.19783 | 35193 ft | 474 kts | 129° |
| 2026-04-16 10:48 | 15.06818 | -91.14540 | 35186 ft | 475 kts | 129° |
| 2026-04-16 10:48 | 15.02581 | -91.09294 | 35192 ft | 475 kts | 129° |
| 2026-04-16 10:49 | 14.98335 | -91.04043 | 35190 ft | 476 kts | 129° |
| 2026-04-16 10:49 | 14.94076 | -90.98781 | 35188 ft | 477 kts | 129° |
| 2026-04-16 10:50 | 14.89856 | -90.93566 | 35177 ft | 462 kts | 131° |
| 2026-04-16 10:50 | 14.85816 | -90.88577 | 35179 ft | 452 kts | 131° |
| 2026-04-16 10:51 | 14.81771 | -90.83589 | 35193 ft | 453 kts | 131° |
| 2026-04-16 10:51 | 14.77715 | -90.78589 | 35194 ft | 454 kts | 131° |
| 2026-04-16 10:52 | 14.73641 | -90.73568 | 35192 ft | 457 kts | 131° |
| 2026-04-16 10:52 | 14.69545 | -90.68525 | 35191 ft | 459 kts | 131° |
| 2026-04-16 10:53 | 14.65451 | -90.63485 | 35186 ft | 462 kts | 131° |
| 2026-04-16 10:53 | 14.61317 | -90.58399 | 35183 ft | 463 kts | 131° |
| 2026-04-16 10:54 | 14.57172 | -90.53304 | 35185 ft | 464 kts | 131° |
| 2026-04-16 10:54 | 14.53101 | -90.48140 | 35185 ft | 464 kts | 129° |
| 2026-04-16 10:55 | 14.49080 | -90.42925 | 35182 ft | 463 kts | 129° |
| 2026-04-16 10:55 | 14.45063 | -90.37728 | 35170 ft | 462 kts | 129° |
| 2026-04-16 10:56 | 14.41068 | -90.32585 | 35166 ft | 461 kts | 129° |
| 2026-04-16 10:56 | 14.37059 | -90.27435 | 35140 ft | 459 kts | 129° |
| 2026-04-16 10:57 | 14.33060 | -90.22302 | 35114 ft | 458 kts | 129° |
| 2026-04-16 10:57 | 14.29069 | -90.17181 | 35103 ft | 458 kts | 129° |
| 2026-04-16 10:58 | 14.25082 | -90.12069 | 35094 ft | 457 kts | 129° |
| 2026-04-16 10:58 | 14.21093 | -90.06956 | 35083 ft | 457 kts | 129° |
| 2026-04-16 10:59 | 14.17107 | -90.01850 | 35070 ft | 457 kts | 129° |
| 2026-04-16 10:59 | 14.13108 | -89.96731 | 35065 ft | 458 kts | 129° |
| 2026-04-16 11:00 | 14.09136 | -89.91648 | 35057 ft | 459 kts | 129° |
| 2026-04-16 11:00 | 14.05126 | -89.86523 | 35048 ft | 459 kts | 129° |
| 2026-04-16 11:01 | 14.01105 | -89.81403 | 35036 ft | 459 kts | 129° |
| 2026-04-16 11:01 | 13.97083 | -89.76289 | 35028 ft | 460 kts | 129° |
| 2026-04-16 11:02 | 13.93053 | -89.71166 | 35021 ft | 460 kts | 129° |
| 2026-04-16 11:02 | 13.89021 | -89.66040 | 35006 ft | 460 kts | 129° |
| 2026-04-16 11:03 | 13.85010 | -89.60946 | 35001 ft | 460 kts | 129° |
| 2026-04-16 11:04 | 13.78949 | -89.53261 | 34990 ft | 461 kts | 129° |
| 2026-04-16 11:04 | 13.74908 | -89.48138 | 34982 ft | 462 kts | 129° |
| 2026-04-16 11:05 | 13.70857 | -89.43005 | 34972 ft | 462 kts | 129° |
| 2026-04-16 11:05 | 13.66806 | -89.37875 | 34963 ft | 462 kts | 129° |
| 2026-04-16 11:06 | 13.62750 | -89.32740 | 34939 ft | 462 kts | 129° |
| 2026-04-16 11:06 | 13.58694 | -89.27609 | 34926 ft | 462 kts | 129° |
| 2026-04-16 11:07 | 13.54642 | -89.22486 | 34917 ft | 461 kts | 129° |
| 2026-04-16 11:07 | 13.50622 | -89.17407 | 34914 ft | 460 kts | 129° |
| 2026-04-16 11:08 | 13.46585 | -89.12308 | 34915 ft | 460 kts | 129° |
| 2026-04-16 11:08 | 13.42548 | -89.07212 | 34915 ft | 459 kts | 129° |
| 2026-04-16 11:09 | 13.38532 | -89.02120 | 34917 ft | 459 kts | 129° |
| 2026-04-16 11:09 | 13.34519 | -88.97022 | 34916 ft | 458 kts | 129° |
| 2026-04-16 11:10 | 13.30507 | -88.91929 | 34914 ft | 459 kts | 129° |
| 2026-04-16 11:10 | 13.26489 | -88.86834 | 34912 ft | 459 kts | 129° |
| 2026-04-16 11:11 | 13.22463 | -88.81732 | 34910 ft | 460 kts | 129° |
| 2026-04-16 11:11 | 13.18486 | -88.76695 | 34909 ft | 460 kts | 129° |
| 2026-04-16 11:12 | 13.14450 | -88.71586 | 34912 ft | 461 kts | 129° |
| 2026-04-16 11:12 | 13.11747 | -88.68166 | 34917 ft | 461 kts | 129° |
| 2026-04-16 11:13 | 13.06355 | -88.61347 | 34916 ft | 462 kts | 129° |
| 2026-04-16 11:13 | 13.02297 | -88.56219 | 34918 ft | 463 kts | 129° |
| 2026-04-16 11:14 | 12.98233 | -88.51089 | 34920 ft | 464 kts | 129° |
| 2026-04-16 11:14 | 12.94162 | -88.45955 | 34922 ft | 464 kts | 129° |
| 2026-04-16 11:15 | 12.90086 | -88.40815 | 34923 ft | 464 kts | 129° |
| 2026-04-16 11:15 | 12.86010 | -88.35676 | 34924 ft | 464 kts | 129° |
| 2026-04-16 11:16 | 12.81935 | -88.30542 | 34924 ft | 465 kts | 129° |
| 2026-04-16 11:16 | 12.77882 | -88.25439 | 34925 ft | 465 kts | 128° |
| 2026-04-16 11:17 | 12.73806 | -88.20308 | 34922 ft | 465 kts | 128° |
| 2026-04-16 11:17 | 12.69723 | -88.15172 | 34923 ft | 464 kts | 128° |
| 2026-04-16 11:18 | 12.65642 | -88.10042 | 34918 ft | 464 kts | 128° |
| 2026-04-16 11:18 | 12.61563 | -88.04916 | 34921 ft | 464 kts | 128° |
| 2026-04-16 11:19 | 12.57480 | -87.99788 | 34925 ft | 464 kts | 128° |
| 2026-04-16 11:19 | 12.53392 | -87.94661 | 34923 ft | 464 kts | 128° |
| 2026-04-16 11:20 | 12.49303 | -87.89543 | 34928 ft | 465 kts | 128° |
| 2026-04-16 11:20 | 12.45203 | -87.84412 | 34926 ft | 465 kts | 128° |
| 2026-04-16 11:21 | 12.41127 | -87.79311 | 34925 ft | 465 kts | 128° |
| 2026-04-16 11:21 | 12.37029 | -87.74185 | 34928 ft | 466 kts | 128° |
| 2026-04-16 11:22 | 12.32921 | -87.69050 | 34926 ft | 466 kts | 128° |
| 2026-04-16 11:22 | 12.29501 | -87.64777 | 34926 ft | 466 kts | 128° |
| 2026-04-16 11:23 | 12.25390 | -87.59642 | 34926 ft | 467 kts | 128° |
| 2026-04-16 11:23 | 12.21274 | -87.54505 | 34928 ft | 467 kts | 128° |
| 2026-04-16 11:24 | 12.17150 | -87.49361 | 34926 ft | 468 kts | 128° |
| 2026-04-16 11:24 | 12.13025 | -87.44218 | 34925 ft | 468 kts | 128° |
| 2026-04-16 11:25 | 12.08892 | -87.39067 | 34930 ft | 469 kts | 128° |
| 2026-04-16 11:25 | 12.04773 | -87.33937 | 34926 ft | 469 kts | 128° |
| 2026-04-16 11:26 | 12.00632 | -87.28781 | 34927 ft | 470 kts | 127° |
| 2026-04-16 11:26 | 11.96481 | -87.23617 | 34929 ft | 470 kts | 127° |
| 2026-04-16 11:27 | 11.92331 | -87.18456 | 34928 ft | 470 kts | 127° |
| 2026-04-16 11:27 | 11.88180 | -87.13296 | 34927 ft | 470 kts | 127° |
| 2026-04-16 11:28 | 11.84032 | -87.08141 | 34927 ft | 469 kts | 127° |
| 2026-04-16 11:28 | 11.79884 | -87.02992 | 34390 ft | 472 kts | 127° |
| 2026-04-16 11:28 | 11.77798 | -87.00413 | 33910 ft | 468 kts | 127° |
| 2026-04-16 11:29 | 11.75731 | -86.97863 | 33331 ft | 465 kts | 126° |
| 2026-04-16 11:29 | 11.73708 | -86.95369 | 32810 ft | 460 kts | 126° |
| 2026-04-16 11:29 | 11.71680 | -86.92870 | 32292 ft | 456 kts | 126° |
| 2026-04-16 11:29 | 11.69666 | -86.90387 | 31786 ft | 451 kts | 125° |
| 2026-04-16 11:30 | 11.67648 | -86.87897 | 31283 ft | 447 kts | 124° |
| 2026-04-16 11:30 | 11.65700 | -86.85494 | 30801 ft | 443 kts | 124° |
| 2026-04-16 11:30 | 11.63741 | -86.83077 | 30299 ft | 440 kts | 123° |
| 2026-04-16 11:30 | 11.61801 | -86.80684 | 29777 ft | 436 kts | 123° |
| 2026-04-16 11:31 | 11.59879 | -86.78312 | 29225 ft | 432 kts | 124° |
| 2026-04-16 11:31 | 11.57973 | -86.75962 | 28708 ft | 427 kts | 124° |
| 2026-04-16 11:31 | 11.56091 | -86.73642 | 28211 ft | 423 kts | 124° |
| 2026-04-16 11:31 | 11.54224 | -86.71340 | 27725 ft | 418 kts | 124° |
| 2026-04-16 11:32 | 11.52377 | -86.69063 | 27250 ft | 414 kts | 125° |
| 2026-04-16 11:32 | 11.50549 | -86.66811 | 26785 ft | 411 kts | 125° |
| 2026-04-16 11:32 | 11.48735 | -86.64575 | 26317 ft | 407 kts | 126° |
| 2026-04-16 11:32 | 11.46932 | -86.62355 | 25858 ft | 404 kts | 126° |
| 2026-04-16 11:33 | 11.45146 | -86.60154 | 25395 ft | 402 kts | 126° |
| 2026-04-16 11:33 | 11.43367 | -86.57964 | 24915 ft | 400 kts | 127° |
| 2026-04-16 11:33 | 11.41595 | -86.55783 | 24453 ft | 398 kts | 127° |
| 2026-04-16 11:33 | 11.39832 | -86.53613 | 23988 ft | 397 kts | 127° |
| 2026-04-16 11:34 | 11.38072 | -86.51448 | 23534 ft | 396 kts | 127° |
| 2026-04-16 11:34 | 11.36341 | -86.49319 | 22997 ft | 394 kts | 128° |
| 2026-04-16 11:34 | 11.34598 | -86.47177 | 22530 ft | 391 kts | 127° |
| 2026-04-16 11:34 | 11.32871 | -86.45054 | 22074 ft | 388 kts | 128° |
| 2026-04-16 11:35 | 11.31157 | -86.42948 | 21626 ft | 384 kts | 127° |
| 2026-04-16 11:35 | 11.29457 | -86.40859 | 21177 ft | 381 kts | 127° |
| 2026-04-16 11:35 | 11.27774 | -86.38791 | 20738 ft | 378 kts | 127° |
| 2026-04-16 11:35 | 11.26103 | -86.36737 | 20306 ft | 375 kts | 127° |
| 2026-04-16 11:36 | 11.24443 | -86.34700 | 19874 ft | 372 kts | 128° |
| 2026-04-16 11:36 | 11.22795 | -86.32677 | 19446 ft | 370 kts | 128° |
| 2026-04-16 11:36 | 11.21159 | -86.30669 | 19008 ft | 368 kts | 128° |
| 2026-04-16 11:36 | 11.19530 | -86.28670 | 18604 ft | 365 kts | 128° |
| 2026-04-16 11:37 | 11.17916 | -86.26690 | 18212 ft | 362 kts | 128° |
| 2026-04-16 11:37 | 11.14836 | -86.22910 | 17327 ft | 356 kts | 128° |
| 2026-04-16 11:37 | 11.13263 | -86.20980 | 16904 ft | 353 kts | 128° |
| 2026-04-16 11:38 | 11.11702 | -86.19067 | 16484 ft | 349 kts | 128° |
| 2026-04-16 11:38 | 11.10159 | -86.17176 | 16075 ft | 346 kts | 128° |
| 2026-04-16 11:38 | 11.08636 | -86.15309 | 15652 ft | 337 kts | 128° |
| 2026-04-16 11:38 | 11.07163 | -86.13506 | 15258 ft | 326 kts | 128° |
| 2026-04-16 11:39 | 11.05734 | -86.11754 | 14879 ft | 316 kts | 128° |
| 2026-04-16 11:39 | 11.04348 | -86.10054 | 14511 ft | 307 kts | 128° |
| 2026-04-16 11:39 | 11.03432 | -86.08932 | 14267 ft | 302 kts | 128° |
| 2026-04-16 11:40 | 11.00213 | -86.04990 | 13373 ft | 290 kts | 128° |
| 2026-04-16 11:40 | 10.97605 | -86.02335 | 12881 ft | 296 kts | 140° |
| 2026-04-16 11:40 | 10.95927 | -86.01020 | 12525 ft | 311 kts | 141° |
| 2026-04-16 11:41 | 10.94205 | -85.99703 | 12127 ft | 306 kts | 142° |
| 2026-04-16 11:41 | 10.92528 | -85.98411 | 11739 ft | 298 kts | 141° |
| 2026-04-16 11:41 | 10.90929 | -85.97165 | 11376 ft | 290 kts | 141° |
| 2026-04-16 11:41 | 10.89352 | -85.95924 | 11020 ft | 285 kts | 141° |
| 2026-04-16 11:42 | 10.87793 | -85.94690 | 10669 ft | 283 kts | 141° |
| 2026-04-16 11:42 | 10.86247 | -85.93463 | 10322 ft | 282 kts | 141° |
| 2026-04-16 11:42 | 10.84713 | -85.92243 | 10184 ft | 280 kts | 142° |
| 2026-04-16 11:42 | 10.83176 | -85.91022 | 10057 ft | 281 kts | 142° |
| 2026-04-16 11:43 | 10.81613 | -85.89779 | 9742 ft | 288 kts | 142° |
| 2026-04-16 11:43 | 10.80033 | -85.88523 | 9380 ft | 287 kts | 142° |
| 2026-04-16 11:43 | 10.78467 | -85.87279 | 9034 ft | 285 kts | 141° |
| 2026-04-16 11:43 | 10.76925 | -85.86053 | 8706 ft | 276 kts | 141° |
| 2026-04-16 11:44 | 10.75436 | -85.84871 | 8396 ft | 267 kts | 141° |
| 2026-04-16 11:44 | 10.73988 | -85.83720 | 8065 ft | 263 kts | 141° |
| 2026-04-16 11:44 | 10.72546 | -85.82574 | 7756 ft | 263 kts | 141° |
| 2026-04-16 11:44 | 10.71109 | -85.81432 | 7455 ft | 261 kts | 141° |
| 2026-04-16 11:45 | 10.69686 | -85.80303 | 7188 ft | 257 kts | 141° |
| 2026-04-16 11:45 | 10.68290 | -85.79212 | 7084 ft | 252 kts | 145° |
| 2026-04-16 11:45 | 10.66636 | -85.78610 | 6873 ft | 257 kts | 173° |
| 2026-04-16 11:45 | 10.64855 | -85.78531 | 6614 ft | 262 kts | 180° |
| 2026-04-16 11:46 | 10.63031 | -85.78547 | 6329 ft | 259 kts | 180° |
| 2026-04-16 11:46 | 10.61262 | -85.78559 | 6016 ft | 248 kts | 179° |
| 2026-04-16 11:46 | 10.59584 | -85.78560 | 5741 ft | 235 kts | 179° |
| 2026-04-16 11:46 | 10.57984 | -85.78546 | 5484 ft | 227 kts | 174° |
| 2026-04-16 11:47 | 10.56476 | -85.78145 | 5208 ft | 224 kts | 156° |
| 2026-04-16 11:47 | 10.54985 | -85.77567 | 4545 ft | 235 kts | 156° |
| 2026-04-16 11:47 | 10.53546 | -85.76896 | 4306 ft | 218 kts | 136° |
| 2026-04-16 11:47 | 10.52851 | -85.75687 | 4210 ft | 189 kts | 93° |
| 2026-04-16 11:48 | 10.52897 | -85.74383 | 4038 ft | 184 kts | 84° |
| 2026-04-16 11:48 | 10.52974 | -85.73121 | 3793 ft | 176 kts | 78° |
| 2026-04-16 11:48 | 10.53232 | -85.71918 | 3581 ft | 175 kts | 74° |
| 2026-04-16 11:48 | 10.53566 | -85.70739 | 3364 ft | 173 kts | 71° |
| 2026-04-16 11:49 | 10.53944 | -85.69577 | 3124 ft | 172 kts | 69° |
| 2026-04-16 11:49 | 10.54332 | -85.68457 | 2896 ft | 162 kts | 68° |
| 2026-04-16 11:49 | 10.54693 | -85.67437 | 2705 ft | 149 kts | 69° |
| 2026-04-16 11:49 | 10.55040 | -85.66458 | 2533 ft | 146 kts | 69° |
| 2026-04-16 11:50 | 10.55383 | -85.65496 | 2324 ft | 141 kts | 67° |
| 2026-04-16 11:50 | 10.55710 | -85.64582 | 2111 ft | 131 kts | 67° |
| 2026-04-16 11:50 | 10.56019 | -85.63723 | 1964 ft | 131 kts | 68° |
| 2026-04-16 11:50 | 10.56324 | -85.62865 | 1794 ft | 126 kts | 68° |
| 2026-04-16 11:51 | 10.56623 | -85.62024 | 1614 ft | 126 kts | 68° |
| 2026-04-16 11:51 | 10.56932 | -85.61161 | 1442 ft | 132 kts | 69° |
| 2026-04-16 11:51 | 10.57245 | -85.60283 | 1288 ft | 130 kts | 69° |
| 2026-04-16 11:51 | 10.57556 | -85.59413 | 1106 ft | 133 kts | 69° |
| 2026-04-16 11:52 | 10.57878 | -85.58507 | 929 ft | 137 kts | 67° |
| 2026-04-16 11:52 | 10.58216 | -85.57567 | 743 ft | 148 kts | 70° |
| 2026-04-16 11:52 | 10.58565 | -85.56590 | 487 ft | 145 kts | 71° |
| 2026-04-16 11:52 | 10.58905 | -85.55651 | 288 ft | 138 kts | 71° |
| 2026-04-16 11:53 | 10.59210 | -85.54793 | 261 ft | 115 kts | 70° |
| 2026-04-16 11:53 | 10.59414 | -85.54242 | 268 ft | 58 kts | 69° |
| 2026-04-16 11:53 | 10.59533 | -85.53915 | 274 ft | 30 kts | 70° |
| 2026-04-16 11:53 | 10.59622 | -85.53836 | 272 ft | 19 kts | 349° |
| 2026-04-16 11:54 | 10.59746 | -85.53873 | 273 ft | 16 kts | 356° |
| 2026-04-16 11:54 | 10.59804 | -85.53796 | 274 ft | 14 kts | 71° |
| 2026-04-16 11:54 | 10.59834 | -85.53703 | 275 ft | 14 kts | 71° |
| 2026-04-16 11:54 | 10.59861 | -85.53624 | 276 ft | 8 kts | 70° |
| 2026-04-16 11:55 | 10.59906 | -85.53600 | 276 ft | 8 kts | 352° |
| 2026-04-16 11:55 | 10.59943 | -85.53613 | 276 ft | 3 kts | 340° |
| 2026-04-16 11:55 | 10.59960 | -85.53619 | 276 ft | 1 kts | 340° |
| 2026-04-16 11:55 | 10.59961 | -85.53620 | 276 ft | 0 kts | 340° |